Time;durP1;ratioP1;P1;durP2;ratioP2;P2;SDS_P1;SDS_P2;PMS_P1;PMS_P2;Temp;Humidity;BMP_temperature;BMP_pressure;BME280_temperature;BME280_humidity;BME280_pressure;Samples;Min_cycle;Max_cycle;Signal;HPM_P1;HPM_P2
2022/06/15 00:01:19;;;;;;;13.48;9.32;;;12.30;99.90;;;;;;5072842;28;20393;-42
2022/06/15 00:03:47;;;;;;;;;;;12.20;99.90;;;;;;5073870;28;20535;-41
2022/06/15 00:06:20;;;;;;;12.45;8.45;;;10.90;99.90;;;;;;5074128;28;20354;-42
2022/06/15 00:08:49;;;;;;;12.60;8.25;;;11.20;99.90;;;;;;5073899;28;20040;-42
2022/06/15 00:11:19;;;;;;;15.32;9.52;;;11.10;99.90;;;;;;5073015;28;20579;-43
2022/06/15 00:13:46;;;;;;;17.38;10.90;;;11.30;99.90;;;;;;5074028;28;20054;-43
2022/06/15 00:16:12;;;;;;;16.55;10.93;;;10.90;99.90;;;;;;5071671;28;20416;-42
2022/06/15 00:18:40;;;;;;;17.45;10.38;;;10.80;99.90;;;;;;5073142;28;20691;-41
2022/06/15 00:21:08;;;;;;;14.13;9.68;;;11.40;99.90;;;;;;5072277;28;20123;-42
2022/06/15 00:23:35;;;;;;;16.85;10.52;;;11.80;99.90;;;;;;5073328;28;20055;-43
2022/06/15 00:26:01;;;;;;;23.60;13.38;;;10.60;99.90;;;;;;5072974;28;20123;-44
2022/06/15 00:28:27;;;;;;;15.35;10.43;;;10.60;99.90;;;;;;5071228;28;20266;-42
2022/06/15 00:30:53;;;;;;;14.45;9.98;;;11.70;99.90;;;;;;5069702;28;20047;-42
2022/06/15 00:33:21;;;;;;;14.50;11.10;;;10.70;99.90;;;;;;5072017;28;20032;-42
2022/06/15 00:35:58;;;;;;;16.48;10.82;;;10.80;99.90;;;;;;5071954;28;20081;-42
2022/06/15 00:38:29;;;;;;;12.90;9.77;;;10.80;99.90;;;;;;5070753;28;20040;-41
2022/06/15 00:40:57;;;;;;;16.35;10.35;;;10.60;99.90;;;;;;5071978;28;20474;-43
2022/06/15 00:43:37;;;;;;;15.80;9.15;;;10.90;99.90;;;;;;5071099;28;20036;-41
2022/06/15 00:46:22;;;;;;;13.75;10.30;;;10.50;99.90;;;;;;5071604;28;20036;-42
2022/06/15 00:49:00;;;;;;;14.32;10.90;;;10.60;99.90;;;;;;5071663;28;20043;-42
2022/06/15 00:51:28;;;;;;;16.92;10.70;;;10.60;99.90;;;;;;5071517;28;20043;-43
2022/06/15 00:53:56;;;;;;;18.05;10.57;;;11.10;99.90;;;;;;5071156;28;20032;-43
2022/06/15 00:56:22;;;;;;;12.20;9.63;;;10.50;99.90;;;;;;5071703;28;20101;-43
2022/06/15 00:58:51;;;;;;;18.38;11.63;;;10.50;99.90;;;;;;5072136;28;20052;-43
2022/06/15 01:01:17;;;;;;;14.10;9.05;;;10.50;99.90;;;;;;5071658;28;20047;-45
2022/06/15 01:03:46;;;;;;;13.23;9.18;;;10.50;99.90;;;;;;5072380;28;20393;-42
2022/06/15 01:06:37;;;;;;;14.77;8.93;;;10.70;99.90;;;;;;5071543;28;20568;-43
2022/06/15 01:09:34;;;;;;;13.30;8.82;;;10.40;99.90;;;;;;5069894;28;20036;-42
2022/06/15 01:12:21;;;;;;;16.48;9.38;;;10.30;99.90;;;;;;4989660;28;20137;-42
2022/06/15 01:15:02;;;;;;;11.40;9.02;;;10.40;99.90;;;;;;4992252;28;21344;-41
2022/06/15 01:17:46;;;;;;;12.65;9.23;;;10.20;99.90;;;;;;4994220;28;20038;-43
2022/06/15 01:20:21;;;;;;;11.68;8.07;;;10.90;99.90;;;;;;4995227;28;20141;-42
2022/06/15 01:22:55;;;;;;;12.73;8.07;;;10.20;99.90;;;;;;4993584;28;20111;-43
2022/06/15 01:25:30;;;;;;;11.50;8.90;;;10.10;99.90;;;;;;4977686;28;20233;-43
2022/06/15 01:28:16;;;;;;;11.90;9.20;;;9.40;99.90;;;;;;4993779;28;20191;-41
2022/06/15 01:30:52;;;;;;;11.02;7.93;;;12.30;99.90;;;;;;4993900;28;20042;-42
2022/06/15 01:33:50;;;;;;;11.07;7.97;;;12.00;99.90;;;;;;4993698;28;20084;-43
2022/06/15 01:37:01;;;;;;;13.60;8.23;;;10.20;99.90;;;;;;4933879;28;20846;-42
2022/06/15 01:39:51;;;;;;;12.07;8.13;;;10.10;99.90;;;;;;4935042;28;20058;-42
2022/06/15 01:42:24;;;;;;;11.30;7.57;;;10.00;99.90;;;;;;4934143;28;20126;-45
2022/06/15 01:44:55;;;;;;;10.95;7.63;;;9.90;99.90;;;;;;4935376;28;20316;-41
2022/06/15 01:47:24;;;;;;;12.20;8.52;;;10.00;99.90;;;;;;4939196;28;20055;-43
2022/06/15 01:50:13;;;;;;;10.35;7.68;;;10.30;99.90;;;;;;5031352;28;20041;-42
2022/06/15 01:52:45;;;;;;;10.65;7.78;;;9.90;99.90;;;;;;5031131;28;20049;-41
2022/06/15 01:55:20;;;;;;;10.93;7.10;;;9.80;99.90;;;;;;5031277;28;20128;-43
2022/06/15 01:57:50;;;;;;;11.13;7.22;;;10.10;99.90;;;;;;5031451;28;20556;-43
2022/06/15 02:00:17;;;;;;;11.75;6.20;;;10.90;99.90;;;;;;5031608;28;20080;-41
2022/06/15 02:03:08;;;;;;;12.38;7.15;;;9.80;99.90;;;;;;5032070;28;20041;-42
2022/06/15 02:05:48;;;;;;;7.72;5.95;;;9.90;99.90;;;;;;5031501;28;20456;-41
2022/06/15 02:08:22;;;;;;;8.57;5.00;;;9.70;99.90;;;;;;5031265;28;20282;-41
2022/06/15 02:11:43;;;;;;;10.55;6.88;;;9.80;99.90;;;;;;5031551;28;20044;-42
2022/06/15 02:14:19;;;;;;;10.07;6.22;;;9.70;99.90;;;;;;4984096;28;20087;-41
2022/06/15 02:16:49;;;;;;;9.02;6.20;;;9.70;99.90;;;;;;4986784;28;20058;-42
2022/06/15 02:19:17;;;;;;;7.18;4.75;;;9.70;99.90;;;;;;4988010;28;20188;-41
2022/06/15 02:21:46;;;;;;;7.13;3.85;;;9.90;99.90;;;;;;4987502;28;20049;-41
2022/06/15 02:24:14;;;;;;;6.00;3.75;;;10.80;99.90;;;;;;4988592;28;20385;-42
2022/06/15 02:26:41;;;;;;;4.30;2.70;;;9.80;99.90;;;;;;4987223;28;20049;-42
2022/06/15 02:29:15;;;;;;;5.63;2.72;;;10.30;99.90;;;;;;4988248;28;20046;-42
2022/06/15 02:31:42;;;;;;;6.53;3.20;;;9.80;99.90;;;;;;4987070;28;20058;-42
2022/06/15 02:34:10;;;;;;;4.88;3.60;;;9.40;99.90;;;;;;4990018;28;20392;-42
2022/06/15 02:36:36;;;;;;;5.85;3.25;;;10.80;99.90;;;;;;4985364;28;20676;-43
2022/06/15 02:39:04;;;;;;;5.03;3.63;;;9.40;99.90;;;;;;4988807;28;20046;-42
2022/06/15 02:41:30;;;;;;;6.40;3.35;;;9.30;99.90;;;;;;4992010;28;20050;-41
2022/06/15 02:43:59;;;;;;;11.43;4.85;;;9.20;99.90;;;;;;4991893;28;20053;-42
2022/06/15 02:46:26;;;;;;;7.32;5.50;;;9.20;99.90;;;;;;4986715;28;20317;-43
2022/06/15 02:48:53;;;;;;;11.85;6.85;;;9.80;99.90;;;;;;4992578;28;20169;-43
2022/06/15 02:51:44;;;;;;;12.85;7.53;;;9.30;99.90;;;;;;5073670;28;20139;-42
2022/06/15 02:54:20;;;;;;;15.15;9.20;;;9.30;99.90;;;;;;5073797;28;20047;-42
2022/06/15 02:56:46;;;;;;;9.43;6.28;;;9.10;99.90;;;;;;5073132;28;20448;-44
2022/06/15 02:59:12;;;;;;;9.48;6.28;;;9.40;99.90;;;;;;5073595;28;20036;-41
2022/06/15 03:01:38;;;;;;;10.25;8.02;;;10.40;99.90;;;;;;5073232;28;20052;-42
2022/06/15 03:04:04;;;;;;;9.63;7.50;;;9.20;99.90;;;;;;5072215;28;20278;-41
2022/06/15 03:06:29;;;;;;;8.40;6.00;;;9.40;99.90;;;;;;5072817;28;20135;-42
2022/06/15 03:08:59;;;;;;;12.05;7.07;;;9.50;99.90;;;;;;5073151;28;20036;-42
2022/06/15 03:11:27;;;;;;;11.10;6.90;;;9.40;99.90;;;;;;5073435;28;20250;-41
2022/06/15 03:13:53;;;;;;;11.63;6.78;;;9.60;99.90;;;;;;5055132;28;20113;-44
2022/06/15 03:16:19;;;;;;;8.57;5.72;;;10.50;99.90;;;;;;5072405;28;20111;-43
2022/06/15 03:18:45;;;;;;;9.90;6.25;;;9.50;99.90;;;;;;5072243;28;20050;-42
2022/06/15 03:21:11;;;;;;;10.68;6.60;;;9.50;99.90;;;;;;5073709;28;20044;-41
2022/06/15 03:23:37;;;;;;;10.27;7.25;;;9.80;99.90;;;;;;5072409;28;20052;-43
2022/06/15 03:26:05;;;;;;;10.10;7.68;;;10.50;99.90;;;;;;5073316;28;20040;-46
2022/06/15 03:28:34;;;;;;;14.57;8.38;;;10.50;99.90;;;;;;5072221;28;20063;-42
2022/06/15 03:31:00;;;;;;;9.75;7.57;;;9.80;99.90;;;;;;5071351;28;20048;-42
2022/06/15 03:33:26;;;;;;;10.32;6.88;;;9.70;99.90;;;;;;5073681;28;20036;-41
2022/06/15 03:35:51;;;;;;;7.88;5.60;;;11.00;99.90;;;;;;5071791;28;20056;-42
2022/06/15 03:38:17;;;;;;;13.07;7.60;;;10.70;99.90;;;;;;5070194;28;20268;-42
2022/06/15 03:40:46;;;;;;;11.07;7.43;;;9.90;99.90;;;;;;5072667;28;20523;-42
2022/06/15 03:43:12;;;;;;;10.38;7.25;;;9.90;99.90;;;;;;5072997;28;20044;-41
2022/06/15 03:45:38;;;;;;;10.70;8.35;;;11.20;99.90;;;;;;5073809;28;20665;-41
2022/06/15 03:48:04;;;;;;;9.63;6.10;;;10.10;99.90;;;;;;5072995;28;20047;-43
2022/06/15 03:50:32;;;;;;;9.10;6.38;;;10.00;99.90;;;;;;5073086;28;20088;-41
2022/06/15 03:52:59;;;;;;;10.18;8.10;;;11.10;99.90;;;;;;5071581;28;20055;-44
2022/06/15 03:55:25;;;;;;;10.52;8.18;;;10.40;99.90;;;;;;5073770;28;20036;-43
2022/06/15 03:57:51;;;;;;;13.35;7.45;;;10.30;99.90;;;;;;5073839;28;20036;-44
2022/06/15 04:00:21;;;;;;;12.18;7.85;;;10.30;99.90;;;;;;5072843;28;20355;-47
2022/06/15 04:02:49;;;;;;;9.73;6.07;;;10.40;99.90;;;;;;5074023;28;20048;-45
2022/06/15 04:05:20;;;;;;;9.45;6.45;;;10.40;99.90;;;;;;5073041;28;20523;-47
2022/06/15 04:10:35;;;;;;;12.93;6.10;;;10.50;99.90;;;;;;5072856;28;20405;-43
2022/06/15 04:13:00;;;;;;;9.32;5.40;;;10.60;99.90;;;;;;5072787;28;20044;-44
2022/06/15 04:15:26;;;;;;;7.85;5.43;;;11.40;99.90;;;;;;5072120;28;20488;-44
2022/06/15 04:17:52;;;;;;;8.73;5.90;;;10.60;99.90;;;;;;5072281;28;20119;-45
2022/06/15 04:20:33;;;;;;;10.35;6.00;;;12.70;99.90;;;;;;5072546;28;20531;-43
2022/06/15 04:23:25;;;;;;;9.85;6.32;;;10.90;99.90;;;;;;5069943;28;20098;-46
2022/06/15 04:26:00;;;;;;;13.43;6.95;;;11.00;99.90;;;;;;5068638;28;20710;-42
2022/06/15 04:28:28;;;;;;;12.43;7.22;;;11.10;99.90;;;;;;5070645;28;20032;-43
2022/06/15 04:30:53;;;;;;;11.98;7.85;;;10.90;99.90;;;;;;5073149;28;20101;-46
2022/06/15 04:33:19;;;;;;;11.43;7.00;;;12.40;99.90;;;;;;5071312;28;20044;-47
2022/06/15 04:35:47;;;;;;;13.35;7.20;;;11.40;99.90;;;;;;5072084;28;20863;-50
2022/06/15 04:38:12;;;;;;;12.10;7.68;;;11.90;99.90;;;;;;5070771;28;20126;-45
2022/06/15 04:40:39;;;;;;;12.50;7.05;;;12.70;99.90;;;;;;5070549;28;20056;-42
2022/06/15 04:43:08;;;;;;;10.15;7.13;;;13.20;99.90;;;;;;5071773;28;20579;-46
2022/06/15 04:45:35;;;;;;;14.52;8.20;;;11.70;99.90;;;;;;5070880;28;20047;-48
2022/06/15 04:48:02;;;;;;;12.38;7.35;;;11.70;99.90;;;;;;5069894;28;21857;-46
2022/06/15 04:50:29;;;;;;;10.32;6.57;;;11.80;99.90;;;;;;5071094;28;20044;-46
2022/06/15 04:52:55;;;;;;;11.18;7.97;;;11.90;99.90;;;;;;5072467;28;20123;-48
2022/06/15 04:55:23;;;;;;;10.48;7.13;;;12.60;99.90;;;;;;5071754;28;20161;-48
2022/06/15 04:57:53;;;;;;;13.25;7.25;;;11.90;99.90;;;;;;5071471;28;20048;-44
2022/06/15 05:00:19;;;;;;;14.07;8.80;;;14.20;99.90;;;;;;5072323;28;20040;-48
2022/06/15 05:02:45;;;;;;;12.80;9.10;;;12.10;99.90;;;;;;5071958;28;20040;-47
2022/06/15 05:05:11;;;;;;;13.85;8.90;;;12.10;99.90;;;;;;5072358;28;20452;-47
2022/06/15 05:07:37;;;;;;;16.77;9.40;;;12.40;99.90;;;;;;5072077;28;20090;-44
2022/06/15 05:10:04;;;;;;;15.48;9.52;;;12.10;99.90;;;;;;5071850;28;20044;-43
2022/06/15 05:12:30;;;;;;;13.02;9.73;;;13.40;99.90;;;;;;5072244;28;20485;-44
2022/06/15 05:14:56;;;;;;;14.48;9.45;;;12.30;99.90;;;;;;5072592;28;20475;-43
2022/06/15 05:17:24;;;;;;;11.05;8.75;;;13.50;99.90;;;;;;5071126;28;20622;-45
2022/06/15 05:19:50;;;;;;;11.90;8.20;;;13.20;99.90;;;;;;5070255;28;20036;-43
2022/06/15 05:22:16;;;;;;;11.02;8.27;;;12.60;99.90;;;;;;5070734;28;20039;-44
2022/06/15 05:24:44;;;;;;;17.17;8.10;;;13.80;99.90;;;;;;5070682;28;20409;-42
2022/06/15 05:27:10;;;;;;;12.57;7.95;;;15.00;99.90;;;;;;5070898;28;20040;-45
2022/06/15 05:29:37;;;;;;;14.43;7.35;;;13.70;99.90;;;;;;5071094;28;20067;-44
2022/06/15 05:32:05;;;;;;;10.13;6.97;;;13.00;99.90;;;;;;5069385;28;20458;-44
2022/06/15 05:34:30;;;;;;;13.82;7.25;;;13.00;99.90;;;;;;5071486;28;20210;-44
2022/06/15 05:36:56;;;;;;;13.48;7.30;;;13.20;99.90;;;;;;5071984;28;20504;-44
2022/06/15 05:39:22;;;;;;;10.93;6.60;;;13.70;99.90;;;;;;5069781;28;20052;-44
2022/06/15 05:41:50;;;;;;;10.85;5.97;;;13.30;99.90;;;;;;5069368;28;20128;-44
2022/06/15 05:46:44;;;;;;;11.48;6.45;;;13.50;99.90;;;;;;5072029;28;20356;-46
2022/06/15 05:49:10;;;;;;;11.45;6.45;;;14.00;99.90;;;;;;5071098;28;20036;-44
2022/06/15 05:51:36;;;;;;;9.38;6.35;;;14.10;99.90;;;;;;5070428;28;20050;-46
2022/06/15 05:54:02;;;;;;;13.57;5.90;;;13.80;99.90;;;;;;5071369;28;20040;-47
2022/06/15 05:56:28;;;;;;;11.63;6.45;;;13.90;99.90;;;;;;5070620;28;20044;-46
2022/06/15 05:58:54;;;;;;;8.27;5.30;;;14.20;99.90;;;;;;5070357;28;20567;-45
2022/06/15 06:01:29;;;;;;;9.55;5.55;;;14.60;99.90;;;;;;5071944;28;20211;-45
2022/06/15 06:03:55;;;;;;;15.02;6.78;;;14.60;99.90;;;;;;5074594;28;20059;-45
2022/06/15 06:06:21;;;;;;;11.20;6.05;;;14.60;99.90;;;;;;5073888;28;20040;-44
2022/06/15 06:08:50;;;;;;;9.60;6.15;;;16.00;99.90;;;;;;5074095;28;20066;-45
2022/06/15 06:11:16;;;;;;;13.27;5.68;;;15.00;99.90;;;;;;5071546;28;20081;-45
2022/06/15 06:13:42;;;;;;;12.77;6.53;;;15.10;99.90;;;;;;5074116;28;20055;-43
2022/06/15 06:16:08;;;;;;;14.00;5.78;;;15.20;99.90;;;;;;5074762;28;21434;-44
2022/06/15 06:18:34;;;;;;;10.57;5.60;;;16.80;99.90;;;;;;5074631;28;20070;-45
2022/06/15 06:21:03;;;;;;;12.85;6.30;;;15.80;99.90;;;;;;5073566;28;20123;-45
2022/06/15 06:23:28;;;;;;;11.25;5.50;;;15.90;99.90;;;;;;5075008;28;20054;-43
2022/06/15 06:25:54;;;;;;;11.52;4.88;;;18.40;99.90;;;;;;5076108;28;20048;-44
2022/06/15 06:28:28;;;;;;;13.07;4.65;;;16.30;99.90;;;;;;5073530;28;20131;-46
2022/06/15 06:30:57;;;;;;;9.55;4.03;;;15.90;99.90;;;;;;5075376;28;20527;-46
2022/06/15 06:33:27;;;;;;;12.27;4.43;;;17.20;99.90;;;;;;5073972;28;20051;-47
2022/06/15 06:35:58;;;;;;;8.27;3.50;;;17.10;99.90;;;;;;5076090;28;20524;-46
2022/06/15 06:38:24;;;;;;;8.47;3.17;;;18.00;99.90;;;;;;5073773;28;20040;-45
2022/06/15 06:40:51;;;;;;;7.93;2.97;;;17.20;99.90;;;;;;5072089;28;20040;-45
2022/06/15 06:43:17;;;;;;;10.73;2.95;;;17.40;99.90;;;;;;5070568;28;20562;-44
2022/06/15 06:45:43;;;;;;;9.70;2.65;;;17.40;99.90;;;;;;5072919;28;20039;-45
2022/06/15 06:48:12;;;;;;;8.35;2.50;;;18.30;99.90;;;;;;5074312;28;20065;-44
2022/06/15 06:50:40;;;;;;;10.32;3.30;;;19.10;99.90;;;;;;5073313;28;20042;-47
2022/06/15 06:53:07;;;;;;;13.35;3.97;;;18.10;99.90;;;;;;5073414;28;20481;-44
2022/06/15 06:55:35;;;;;;;9.43;3.20;;;18.10;99.90;;;;;;5073293;28;20040;-45
2022/06/15 06:58:01;;;;;;;7.03;2.78;;;18.10;99.90;;;;;;5073051;28;22735;-43
2022/06/15 07:00:28;;;;;;;9.20;3.20;;;18.40;99.90;;;;;;5072993;28;20043;-43
2022/06/15 07:02:54;;;;;;;9.80;3.55;;;17.70;99.90;;;;;;5073276;28;20111;-46
2022/06/15 07:05:20;;;;;;;9.63;3.80;;;17.80;99.90;;;;;;5073003;28;20400;-47
2022/06/15 07:07:46;;;;;;;8.98;3.50;;;17.80;99.90;;;;;;5071502;28;20048;-45
2022/06/15 07:10:14;;;;;;;8.02;4.63;;;18.00;99.90;;;;;;5073117;28;20427;-45
2022/06/15 07:12:42;;;;;;;8.05;4.30;;;17.90;99.90;;;;;;5072121;28;20044;-45
2022/06/15 07:15:11;;;;;;;9.30;4.43;;;18.00;99.90;;;;;;5071154;28;20035;-44
2022/06/15 07:17:37;;;;;;;8.55;3.80;;;18.00;99.90;;;;;;5072768;28;20043;-44
2022/06/15 07:20:04;;;;;;;9.20;3.58;;;18.00;99.90;;;;;;5072625;28;20503;-45
2022/06/15 07:22:32;;;;;;;10.15;3.75;;;18.50;99.90;;;;;;5072962;28;20036;-44
2022/06/15 07:24:58;;;;;;;9.50;4.15;;;18.60;99.90;;;;;;5072857;28;20038;-50
2022/06/15 07:27:24;;;;;;;8.23;3.67;;;18.90;99.90;;;;;;5073005;28;20032;-47
2022/06/15 07:29:50;;;;;;;9.30;4.25;;;19.00;99.90;;;;;;5071922;28;20461;-47
2022/06/15 07:32:17;;;;;;;8.57;4.07;;;19.10;99.90;;;;;;5072947;28;20055;-45
2022/06/15 07:34:43;;;;;;;8.15;3.70;;;18.90;99.90;;;;;;5073418;28;20079;-47
2022/06/15 07:37:11;;;;;;;9.48;4.15;;;20.50;99.90;;;;;;5072545;28;20220;-47
2022/06/15 07:39:38;;;;;;;10.50;3.90;;;19.40;99.90;;;;;;5071892;28;20071;-46
2022/06/15 07:42:07;;;;;;;9.90;3.80;;;19.10;99.90;;;;;;5071967;28;20036;-46
2022/06/15 07:44:34;;;;;;;13.52;3.47;;;18.50;99.90;;;;;;5073025;28;20077;-47
2022/06/15 07:49:55;;;;;;;9.65;3.28;;;18.10;99.90;;;;;;5072831;28;20056;-48
2022/06/15 07:52:37;;;;;;;9.57;3.03;;;18.00;99.90;;;;;;5072429;28;20036;-44
2022/06/15 07:55:06;;;;;;;7.63;3.72;;;18.00;99.90;;;;;;5072650;28;20123;-45
2022/06/15 07:57:31;;;;;;;8.57;2.85;;;18.10;99.90;;;;;;5072068;28;20032;-45
2022/06/15 07:59:57;;;;;;;8.73;3.40;;;18.00;99.90;;;;;;5072236;28;20104;-46
2022/06/15 08:02:27;;;;;;;9.35;3.40;;;18.20;99.90;;;;;;5072646;28;20048;-43
2022/06/15 08:04:53;;;;;;;8.82;3.58;;;19.70;99.90;;;;;;5073249;28;20134;-45
2022/06/15 08:07:18;;;;;;;8.77;3.60;;;20.30;99.90;;;;;;5071296;28;20194;-46
2022/06/15 08:09:46;;;;;;;7.72;3.50;;;19.30;99.90;;;;;;5072793;28;20078;-45
2022/06/15 08:12:14;;;;;;;9.10;3.13;;;19.40;99.90;;;;;;5070841;28;20042;-44
2022/06/15 08:14:54;;;;;;;9.05;3.22;;;19.40;99.90;;;;;;5072146;28;20048;-45
2022/06/15 08:17:40;;;;;;;9.45;3.15;;;20.10;99.90;;;;;;5071429;28;20584;-47
2022/06/15 08:20:14;;;;;;;6.05;2.47;;;21.10;99.90;;;;;;5072077;28;20047;-48
2022/06/15 08:22:43;;;;;;;8.00;2.90;;;21.80;99.90;;;;;;5070687;28;20068;-46
2022/06/15 08:25:13;;;;;;;8.63;2.50;;;23.70;99.90;;;;;;5070280;28;20036;-45
2022/06/15 08:27:39;;;;;;;6.03;2.15;;;22.40;99.90;;;;;;5070939;28;20051;-46
2022/06/15 08:30:08;;;;;;;8.13;2.70;;;23.10;99.90;;;;;;5071435;28;20111;-47
2022/06/15 08:32:36;;;;;;;8.82;2.75;;;23.00;99.90;;;;;;5071702;28;20068;-45
2022/06/15 08:35:02;;;;;;;7.05;1.83;;;23.00;99.90;;;;;;5072132;28;20040;-45
2022/06/15 08:37:29;;;;;;;9.68;2.03;;;23.50;99.90;;;;;;5071452;28;20051;-48
2022/06/15 08:39:57;;;;;;;5.47;1.98;;;24.00;99.90;;;;;;5072228;28;20047;-46
2022/06/15 08:42:47;;;;;;;6.65;2.30;;;24.00;99.90;;;;;;5071467;28;20052;-45
2022/06/15 08:45:37;;;;;;;8.18;2.08;;;23.90;99.90;;;;;;5071911;28;20083;-46
2022/06/15 08:48:31;;;;;;;8.02;2.35;;;23.50;99.90;;;;;;5073126;28;20060;-46
2022/06/15 08:51:15;;;;;;;6.75;2.05;;;23.40;99.90;;;;;;5072142;28;20097;-46
2022/06/15 08:54:07;;;;;;;5.60;1.90;;;24.00;99.90;;;;;;5070981;28;20105;-44
2022/06/15 08:56:41;;;;;;;6.30;1.70;;;24.30;99.90;;;;;;5068450;28;20062;-46
2022/06/15 08:59:31;;;;;;;5.15;1.58;;;24.50;99.90;;;;;;5072629;28;20097;-46
2022/06/15 09:02:13;;;;;;;8.63;1.73;;;24.30;99.90;;;;;;5072353;28;20124;-45
2022/06/15 09:05:02;;;;;;;7.35;1.90;;;23.80;99.90;;;;;;5073202;28;20824;-45
2022/06/15 09:07:45;;;;;;;6.15;2.10;;;24.10;99.90;;;;;;5073569;28;20040;-45
2022/06/15 09:10:30;;;;;;;6.07;2.28;;;23.30;99.90;;;;;;5070341;28;20126;-44
2022/06/15 09:13:17;;;;;;;8.52;2.20;;;22.30;99.90;;;;;;5069913;28;20040;-43
2022/06/15 09:16:12;;;;;;;8.13;2.22;;;21.80;99.90;;;;;;5072681;28;20094;-44
2022/06/15 09:19:06;;;;;;;5.38;1.92;;;21.50;99.90;;;;;;5071352;28;20504;-46
2022/06/15 09:21:41;;;;;;;9.65;2.88;;;21.10;99.90;;;;;;5007469;28;20050;-45
2022/06/15 09:24:34;;;;;;;6.13;2.40;;;20.60;99.90;;;;;;4992916;28;20049;-47
2022/06/15 09:27:09;;;;;;;10.52;2.67;;;20.40;99.90;;;;;;5009027;28;21061;-45
2022/06/15 09:29:45;;;;;;;7.75;2.38;;;20.00;99.90;;;;;;4992507;28;20069;-50
2022/06/15 09:32:27;;;;;;;9.02;2.80;;;20.20;99.90;;;;;;5008534;28;20059;-47
2022/06/15 09:35:13;;;;;;;9.10;3.17;;;20.70;99.90;;;;;;5008139;28;21157;-45
2022/06/15 09:37:42;;;;;;;7.75;2.60;;;20.60;99.90;;;;;;4996525;28;20569;-44
2022/06/15 09:40:10;;;;;;;6.07;2.75;;;20.30;99.90;;;;;;5011128;28;20049;-46
2022/06/15 09:43:02;;;;;;;5.00;2.17;;;20.40;99.90;;;;;;5011319;28;20066;-45
2022/06/15 09:46:06;;;;;;;8.90;2.63;;;20.90;99.90;;;;;;4994340;28;20053;-46
2022/06/15 09:48:48;;;;;;;9.70;2.90;;;20.70;99.90;;;;;;4991725;28;20042;-43
2022/06/15 09:51:35;;;;;;;5.80;2.55;;;21.50;99.90;;;;;;4992284;28;20061;-44
2022/06/15 09:54:07;;;;;;;8.40;2.60;;;21.20;99.90;;;;;;4992283;28;20514;-42
2022/06/15 09:56:33;;;;;;;;;;;20.90;99.90;;;;;;4991974;28;20287;-47
2022/06/15 09:59:09;;;;;;;10.30;2.85;;;20.60;99.90;;;;;;5033494;28;20401;-44
2022/06/15 10:01:41;;;;;;;8.40;2.70;;;20.20;99.90;;;;;;5051636;28;20174;-44
2022/06/15 10:04:13;;;;;;;8.23;2.97;;;20.20;99.90;;;;;;5051417;28;20441;-45
2022/06/15 10:06:47;;;;;;;8.13;2.70;;;20.60;99.90;;;;;;5052497;28;20537;-46
2022/06/15 10:09:16;;;;;;;12.68;2.80;;;21.60;99.90;;;;;;5050890;28;20253;-44
2022/06/15 10:11:49;;;;;;;8.15;2.65;;;22.40;99.90;;;;;;5051788;28;20237;-45
2022/06/15 10:14:26;;;;;;;8.80;2.40;;;20.80;99.90;;;;;;5034807;28;20276;-46
2022/06/15 10:17:18;;;;;;;10.13;2.78;;;20.60;99.90;;;;;;5051537;28;20468;-43
2022/06/15 10:19:48;;;;;;;6.35;2.58;;;20.20;99.90;;;;;;5051476;28;20542;-42
2022/06/15 10:22:27;;;;;;;5.10;2.10;;;20.50;99.90;;;;;;5033917;28;20044;-46
2022/06/15 10:24:55;;;;;;;6.85;2.55;;;20.00;99.90;;;;;;5057879;28;20413;-48
2022/06/15 10:27:34;;;;;;;8.30;2.60;;;18.10;99.90;;;;;;5073051;28;20874;-46
2022/06/15 10:30:11;;;;;;;6.55;2.30;;;20.40;99.90;;;;;;5074149;28;20036;-46
2022/06/15 10:32:57;;;;;;;8.13;2.20;;;20.90;99.90;;;;;;5075271;28;20040;-44
2022/06/15 10:35:23;;;;;;;6.63;2.13;;;20.80;99.90;;;;;;5075829;28;20040;-45
2022/06/15 10:38:01;;;;;;;6.05;3.30;;;21.30;99.90;;;;;;5074570;28;20261;-46
2022/06/15 10:40:30;;;;;;;7.53;2.45;;;21.70;99.90;;;;;;5073190;28;20048;-46
2022/06/15 10:43:03;;;;;;;6.40;2.10;;;22.00;99.90;;;;;;5074768;28;20040;-47
2022/06/15 10:45:54;;;;;;;7.15;2.20;;;22.00;99.90;;;;;;5073880;28;20044;-45
2022/06/15 10:48:45;;;;;;;6.03;2.05;;;21.80;99.90;;;;;;5073940;28;20055;-44
2022/06/15 10:51:13;;;;;;;11.00;2.33;;;21.80;99.90;;;;;;5072472;28;20051;-47
2022/06/15 10:53:43;;;;;;;5.15;2.28;;;23.00;99.90;;;;;;5073827;28;20048;-48
2022/06/15 11:02:42;;;;;;;7.72;2.00;;;21.80;99.90;;;;;;5072617;28;20050;-46
2022/06/15 11:05:13;;;;;;;8.32;2.40;;;22.10;99.90;;;;;;5072568;28;21207;-48
2022/06/15 11:07:45;;;;;;;5.32;1.90;;;21.80;99.90;;;;;;5073088;28;20871;-46
2022/06/15 11:10:13;;;;;;;5.47;1.73;;;21.70;99.90;;;;;;5073670;28;20048;-46
2022/06/15 11:12:54;;;;;;;8.43;1.90;;;21.30;99.90;;;;;;5072080;28;20048;-46
2022/06/15 11:18:28;;;;;;;5.78;2.20;;;20.80;99.90;;;;;;5071046;28;20066;-48
2022/06/15 11:21:07;;;;;;;7.28;2.38;;;20.60;99.90;;;;;;5073130;28;20496;-44
2022/06/15 11:23:43;;;;;;;9.60;3.20;;;21.10;99.90;;;;;;5072925;28;20048;-43
2022/06/15 11:26:53;;;;;;;6.72;2.92;;;21.30;99.90;;;;;;5070175;28;20131;-47
2022/06/15 11:29:18;;;;;;;8.85;3.00;;;21.20;99.90;;;;;;5071974;28;20446;-48
2022/06/15 11:31:44;;;;;;;7.68;3.08;;;21.60;99.90;;;;;;5074363;28;20307;-49
2022/06/15 11:34:16;;;;;;;10.10;3.45;;;23.50;99.90;;;;;;5073968;28;20036;-46
2022/06/15 11:36:56;;;;;;;8.20;3.00;;;21.70;99.90;;;;;;5073305;28;20061;-44
2022/06/15 11:39:36;;;;;;;5.93;2.75;;;21.20;99.90;;;;;;5072550;28;20044;-45
2022/06/15 11:42:07;;;;;;;6.57;2.50;;;21.20;99.90;;;;;;5073726;28;20028;-45
2022/06/15 11:44:39;;;;;;;6.68;2.13;;;21.10;99.90;;;;;;5072866;28;20300;-44
2022/06/15 11:47:31;;;;;;;5.75;1.65;;;22.80;99.90;;;;;;5074624;28;20067;-47
2022/06/15 11:50:36;;;;;;;6.45;3.00;;;20.80;99.90;;;;;;4990803;28;20228;-45
2022/06/15 11:53:43;;;;;;;8.00;3.63;;;21.00;99.90;;;;;;4966802;28;20042;-44
2022/06/15 11:56:12;;;;;;;9.55;4.03;;;20.70;99.90;;;;;;4989073;28;20030;-45
2022/06/15 11:58:56;;;;;;;6.07;3.15;;;20.70;99.90;;;;;;4988179;28;20045;-46
2022/06/15 12:01:40;;;;;;;10.10;3.35;;;20.60;99.90;;;;;;4989984;28;20597;-44
2022/06/15 12:04:57;;;;;;;6.18;3.05;;;21.00;99.90;;;;;;4990462;28;20890;-44
2022/06/15 12:07:45;;;;;;;9.13;3.78;;;21.50;99.90;;;;;;4900543;29;20055;-44
2022/06/15 12:10:47;;;;;;;7.70;3.30;;;22.00;99.90;;;;;;4899571;29;20093;-47
2022/06/15 12:13:36;;;;;;;8.90;2.78;;;24.50;99.90;;;;;;4899462;29;20752;-47
2022/06/15 12:16:42;;;;;;;6.03;2.90;;;22.20;99.90;;;;;;4899391;29;20040;-44
2022/06/15 12:19:16;;;;;;;9.10;3.00;;;22.70;99.90;;;;;;4876299;29;20135;-49
2022/06/15 12:22:04;;;;;;;8.65;3.83;;;22.50;99.90;;;;;;4876339;29;20556;-49
2022/06/15 12:24:44;;;;;;;8.02;3.17;;;22.40;99.90;;;;;;4876005;29;20060;-44
2022/06/15 12:27:31;;;;;;;8.15;2.75;;;22.10;99.90;;;;;;4897262;29;20094;-49
2022/06/15 12:30:07;;;;;;;6.28;2.75;;;22.20;99.90;;;;;;4911650;29;20074;-47
2022/06/15 12:32:41;;;;;;;8.38;2.63;;;21.90;99.90;;;;;;4911909;28;20056;-45
2022/06/15 12:35:30;;;;;;;8.15;3.20;;;21.50;99.90;;;;;;4912147;29;20047;-47
2022/06/15 12:38:19;;;;;;;7.55;2.92;;;21.70;99.90;;;;;;4958534;28;20084;-44
2022/06/15 12:44:08;;;;;;;8.75;3.65;;;22.00;99.90;;;;;;4963202;28;21189;-46
2022/06/15 12:46:35;;;;;;;9.27;3.33;;;21.70;99.90;;;;;;4966662;28;20491;-52
2022/06/15 12:49:34;;;;;;;10.23;3.53;;;21.60;99.90;;;;;;4964961;28;20046;-44
2022/06/15 12:52:18;;;;;;;6.43;2.55;;;21.50;99.90;;;;;;4951243;28;20081;-43
2022/06/15 12:55:02;;;;;;;7.68;2.78;;;21.70;99.90;;;;;;4971328;28;20053;-45
2022/06/15 12:57:37;;;;;;;6.25;2.90;;;21.80;99.90;;;;;;4985303;28;20050;-46
2022/06/15 13:00:03;;;;;;;9.18;3.25;;;21.60;99.90;;;;;;4983803;28;20054;-45
2022/06/15 13:02:48;;;;;;;8.43;3.42;;;21.60;99.90;;;;;;4987459;28;20046;-43
2022/06/15 13:05:38;;;;;;;6.57;2.90;;;21.60;99.90;;;;;;4983591;28;20575;-45
2022/06/15 13:08:24;;;;;;;10.02;3.63;;;21.90;99.90;;;;;;4955883;28;20058;-45
2022/06/15 13:10:53;;;;;;;7.35;2.47;;;22.10;99.90;;;;;;4959200;28;20050;-47
2022/06/15 13:13:27;;;;;;;7.10;2.45;;;22.20;99.90;;;;;;4961554;28;20126;-45
2022/06/15 13:15:59;;;;;;;7.22;2.97;;;21.90;99.90;;;;;;4959728;28;20129;-45
2022/06/15 13:18:48;;;;;;;6.38;2.53;;;21.80;99.90;;;;;;4959606;28;20047;-47
2022/06/15 13:21:50;;;;;;;7.50;2.50;;;21.40;99.90;;;;;;4993907;28;20084;-48
2022/06/15 13:24:16;;;;;;;6.25;2.88;;;22.00;99.90;;;;;;4920680;28;20169;-45
2022/06/15 13:26:42;;;;;;;7.90;2.55;;;22.20;99.90;;;;;;4917148;28;20870;-46
2022/06/15 13:29:10;;;;;;;6.97;2.60;;;21.90;99.90;;;;;;4919279;28;20123;-47
2022/06/15 13:31:53;;;;;;;7.68;2.50;;;21.90;99.90;;;;;;4919224;28;20134;-50
2022/06/15 13:34:33;;;;;;;7.63;2.35;;;21.80;99.90;;;;;;4916845;28;20062;-49
2022/06/15 13:37:26;;;;;;;8.00;2.63;;;21.60;99.90;;;;;;4924581;28;20320;-49